DAL213 KEWR-KRDU
Flight info
| Callsign | DAL213 |
|---|---|
| Flight time | N/A |
| Altitude | 38000 |
| Route | ELVAE NECCK WHITE Q409 VILLS NALES Q141 HOUKY TAQLE3 |
| Aircraft | A359/H-SDE2E3GHIJ3J4J5LM1ORWXY/LB1D1 |
Departure
| Time | 2026-05-06 21:50 |
|---|---|
| Airport | Newark Liberty International Airport (KEWR) |
Arrival
| Time | N/A |
|---|---|
| Airport | Raleigh-Durham International Airport (KRDU) |
| Time | Latitude | Longitude | Altitude | Speed | Heading |
|---|---|---|---|---|---|
| 2026-05-06 21:23 | 40.68362 | -74.18209 | 28 ft | 0 kts | 275° |
| 2026-05-06 21:40 | 40.68360 | -74.18183 | 27 ft | 4 kts | 274° |
| 2026-05-06 21:41 | 40.68358 | -74.18149 | 26 ft | 4 kts | 274° |
| 2026-05-06 21:41 | 40.68356 | -74.18116 | 26 ft | 3 kts | 274° |
| 2026-05-06 21:41 | 40.68352 | -74.18090 | 26 ft | 4 kts | 341° |
| 2026-05-06 21:41 | 40.68331 | -74.18093 | 28 ft | 4 kts | 17° |
| 2026-05-06 21:42 | 40.68312 | -74.18099 | 28 ft | 1 kts | 5° |
| 2026-05-06 21:42 | 40.68308 | -74.18100 | 28 ft | 0 kts | 5° |
| 2026-05-06 21:45 | 40.68329 | -74.18097 | 28 ft | 10 kts | 5° |
| 2026-05-06 21:45 | 40.68400 | -74.18042 | 28 ft | 11 kts | 78° |
| 2026-05-06 21:45 | 40.68394 | -74.18020 | 28 ft | 4 kts | 109° |
| 2026-05-06 21:45 | 40.68365 | -74.17909 | 28 ft | 18 kts | 109° |
| 2026-05-06 21:46 | 40.68309 | -74.17746 | 28 ft | 21 kts | 117° |
| 2026-05-06 21:46 | 40.68346 | -74.17604 | 29 ft | 18 kts | 34° |
| 2026-05-06 21:46 | 40.68396 | -74.17564 | 29 ft | 0 kts | 31° |
| 2026-05-06 21:47 | 40.68465 | -74.17516 | 29 ft | 31 kts | 27° |
| 2026-05-06 21:47 | 40.68705 | -74.17361 | 28 ft | 45 kts | 25° |
| 2026-05-06 21:47 | 40.68994 | -74.17180 | 28 ft | 47 kts | 25° |
| 2026-05-06 21:48 | 40.69283 | -74.16997 | 28 ft | 48 kts | 26° |
| 2026-05-06 21:48 | 40.69572 | -74.16811 | 28 ft | 49 kts | 26° |
| 2026-05-06 21:48 | 40.69889 | -74.16613 | 27 ft | 50 kts | 25° |
| 2026-05-06 21:48 | 40.70128 | -74.16484 | 27 ft | 24 kts | 11° |
| 2026-05-06 21:49 | 40.70260 | -74.16431 | 27 ft | 13 kts | 57° |
| 2026-05-06 21:49 | 40.70276 | -74.16329 | 28 ft | 12 kts | 87° |
| 2026-05-06 21:49 | 40.70237 | -74.16256 | 27 ft | 11 kts | 168° |
| 2026-05-06 21:49 | 40.70136 | -74.16302 | 26 ft | 28 kts | 205° |
| 2026-05-06 21:50 | 40.69819 | -74.16510 | 27 ft | 101 kts | 205° |
| 2026-05-06 21:50 | 40.69000 | -74.17025 | 31 ft | 187 kts | 206° |
| 2026-05-06 21:50 | 40.67767 | -74.17765 | 631 ft | 222 kts | 205° |
| 2026-05-06 21:50 | 40.66321 | -74.18721 | 1872 ft | 249 kts | 210° |
| 2026-05-06 21:51 | 40.64828 | -74.19770 | 3086 ft | 229 kts | 212° |
| 2026-05-06 21:51 | 40.63461 | -74.20782 | 3956 ft | 229 kts | 214° |
| 2026-05-06 21:51 | 40.62050 | -74.21873 | 4572 ft | 238 kts | 215° |
| 2026-05-06 21:51 | 40.60625 | -74.22989 | 5227 ft | 240 kts | 216° |
| 2026-05-06 21:52 | 40.59163 | -74.24102 | 6088 ft | 249 kts | 214° |
| 2026-05-06 21:52 | 40.57639 | -74.25245 | 7424 ft | 255 kts | 214° |
| 2026-05-06 21:52 | 40.56139 | -74.26282 | 9158 ft | 249 kts | 209° |
| 2026-05-06 21:52 | 40.54432 | -74.26873 | 10565 ft | 264 kts | 193° |
| 2026-05-06 21:53 | 40.52599 | -74.26686 | 11682 ft | 284 kts | 177° |
| 2026-05-06 21:53 | 40.50665 | -74.25976 | 12861 ft | 294 kts | 169° |
| 2026-05-06 21:53 | 40.48709 | -74.24989 | 13959 ft | 302 kts | 166° |
| 2026-05-06 21:53 | 40.46763 | -74.23906 | 14847 ft | 311 kts | 166° |
| 2026-05-06 21:54 | 40.44728 | -74.22768 | 15676 ft | 320 kts | 166° |
| 2026-05-06 21:54 | 40.42675 | -74.21657 | 16573 ft | 326 kts | 166° |
| 2026-05-06 21:54 | 40.40536 | -74.20544 | 17457 ft | 334 kts | 167° |
| 2026-05-06 21:54 | 40.38289 | -74.19417 | 17990 ft | 353 kts | 167° |
| 2026-05-06 21:55 | 40.35952 | -74.18270 | 18483 ft | 369 kts | 167° |
| 2026-05-06 21:55 | 40.33465 | -74.17268 | 19168 ft | 372 kts | 175° |
| 2026-05-06 21:55 | 40.30931 | -74.16766 | 19896 ft | 369 kts | 185° |
| 2026-05-06 21:55 | 40.28412 | -74.16846 | 20642 ft | 364 kts | 196° |
| 2026-05-06 21:56 | 40.27949 | -74.16923 | 20791 ft | 364 kts | 197° |
| 2026-05-06 21:56 | 40.26369 | -74.17260 | 21346 ft | 363 kts | 200° |
| 2026-05-06 21:56 | 40.23907 | -74.17922 | 22159 ft | 365 kts | 203° |
| 2026-05-06 21:56 | 40.21415 | -74.18680 | 22960 ft | 369 kts | 204° |
| 2026-05-06 21:57 | 40.18897 | -74.19479 | 23682 ft | 372 kts | 205° |
| 2026-05-06 21:57 | 40.16377 | -74.20278 | 24305 ft | 376 kts | 205° |
| 2026-05-06 21:57 | 40.13792 | -74.21085 | 24915 ft | 381 kts | 204° |
| 2026-05-06 21:57 | 40.11223 | -74.21869 | 25510 ft | 386 kts | 204° |
| 2026-05-06 21:58 | 40.08609 | -74.22650 | 26115 ft | 390 kts | 204° |
| 2026-05-06 21:58 | 40.05951 | -74.23437 | 26731 ft | 393 kts | 204° |
| 2026-05-06 21:58 | 40.03268 | -74.24302 | 27278 ft | 392 kts | 207° |
| 2026-05-06 21:58 | 40.00756 | -74.25525 | 27817 ft | 386 kts | 214° |
| 2026-05-06 21:59 | 39.98420 | -74.27202 | 28433 ft | 379 kts | 221° |
| 2026-05-06 21:59 | 39.96255 | -74.29096 | 29045 ft | 378 kts | 224° |
| 2026-05-06 21:59 | 39.94111 | -74.31091 | 29632 ft | 380 kts | 225° |
| 2026-05-06 21:59 | 39.91972 | -74.33144 | 30144 ft | 383 kts | 225° |
| 2026-05-06 22:00 | 39.89826 | -74.35224 | 30598 ft | 386 kts | 225° |
| 2026-05-06 22:00 | 39.87667 | -74.37312 | 31145 ft | 387 kts | 226° |
| 2026-05-06 22:00 | 39.85501 | -74.39392 | 31663 ft | 389 kts | 226° |
| 2026-05-06 22:00 | 39.83313 | -74.41492 | 31962 ft | 393 kts | 226° |
| 2026-05-06 22:01 | 39.81233 | -74.43786 | 32285 ft | 390 kts | 232° |
| 2026-05-06 22:01 | 39.79309 | -74.46213 | 32781 ft | 391 kts | 233° |
| 2026-05-06 22:01 | 39.77378 | -74.48716 | 33222 ft | 392 kts | 233° |
| 2026-05-06 22:01 | 39.75475 | -74.51222 | 33630 ft | 393 kts | 234° |
| 2026-05-06 22:02 | 39.73538 | -74.53794 | 34017 ft | 395 kts | 234° |
| 2026-05-06 22:02 | 39.71636 | -74.56327 | 34356 ft | 397 kts | 234° |
| 2026-05-06 22:02 | 39.69691 | -74.58914 | 34746 ft | 398 kts | 234° |
| 2026-05-06 22:02 | 39.67759 | -74.61473 | 35236 ft | 395 kts | 234° |
| 2026-05-06 22:03 | 39.65851 | -74.63993 | 35684 ft | 394 kts | 234° |
| 2026-05-06 22:03 | 39.63940 | -74.66513 | 36128 ft | 392 kts | 234° |
| 2026-05-06 22:03 | 39.62023 | -74.69038 | 36551 ft | 391 kts | 234° |
| 2026-05-06 22:03 | 39.60119 | -74.71548 | 36977 ft | 390 kts | 235° |
| 2026-05-06 22:04 | 39.58227 | -74.74039 | 37387 ft | 388 kts | 235° |
| 2026-05-06 22:04 | 39.56938 | -74.75735 | 37666 ft | 387 kts | 235° |
| 2026-05-06 22:04 | 39.55064 | -74.78203 | 37841 ft | 391 kts | 235° |
| 2026-05-06 22:04 | 39.53128 | -74.80759 | 37857 ft | 398 kts | 235° |
| 2026-05-06 22:05 | 39.49198 | -74.85940 | 37851 ft | 409 kts | 234° |
| 2026-05-06 22:05 | 39.45177 | -74.91207 | 37853 ft | 415 kts | 234° |
| 2026-05-06 22:06 | 39.41117 | -74.96495 | 37850 ft | 414 kts | 234° |
| 2026-05-06 22:06 | 39.37071 | -75.01765 | 37869 ft | 414 kts | 234° |
| 2026-05-06 22:07 | 39.33011 | -75.07055 | 37902 ft | 414 kts | 234° |
| 2026-05-06 22:07 | 39.28970 | -75.12310 | 37807 ft | 411 kts | 234° |
| 2026-05-06 22:08 | 39.24931 | -75.17576 | 37867 ft | 413 kts | 234° |
| 2026-05-06 22:08 | 39.20887 | -75.22809 | 37858 ft | 414 kts | 234° |
| 2026-05-06 22:09 | 39.16827 | -75.28043 | 37851 ft | 414 kts | 234° |
| 2026-05-06 22:09 | 39.12776 | -75.33277 | 37851 ft | 414 kts | 234° |
| 2026-05-06 22:10 | 39.08699 | -75.38540 | 37846 ft | 415 kts | 234° |
| 2026-05-06 22:10 | 39.04625 | -75.43794 | 37862 ft | 416 kts | 234° |
| 2026-05-06 22:11 | 39.00542 | -75.49042 | 37852 ft | 416 kts | 234° |
| 2026-05-06 22:11 | 38.96449 | -75.54291 | 37845 ft | 416 kts | 234° |
| 2026-05-06 22:12 | 38.92356 | -75.59533 | 37852 ft | 416 kts | 234° |
| 2026-05-06 22:12 | 38.88635 | -75.65113 | 37855 ft | 406 kts | 244° |
| 2026-05-06 22:13 | 38.85683 | -75.71290 | 37864 ft | 403 kts | 246° |
| 2026-05-06 22:13 | 38.82898 | -75.77500 | 37862 ft | 403 kts | 247° |
| 2026-05-06 22:14 | 38.80132 | -75.83698 | 37870 ft | 402 kts | 247° |
| 2026-05-06 22:14 | 38.77327 | -75.89931 | 37870 ft | 402 kts | 246° |
| 2026-05-06 22:15 | 38.74380 | -75.96032 | 37879 ft | 408 kts | 241° |
| 2026-05-06 22:15 | 38.70376 | -76.01379 | 37876 ft | 425 kts | 229° |
| 2026-05-06 22:16 | 38.65703 | -76.06078 | 37877 ft | 431 kts | 227° |
| 2026-05-06 22:16 | 38.60880 | -76.10687 | 37878 ft | 432 kts | 227° |
| 2026-05-06 22:17 | 38.56096 | -76.15268 | 37896 ft | 432 kts | 227° |
| 2026-05-06 22:17 | 38.51294 | -76.19902 | 37866 ft | 430 kts | 227° |
| 2026-05-06 22:18 | 38.46520 | -76.24522 | 37881 ft | 430 kts | 227° |
| 2026-05-06 22:18 | 38.41775 | -76.29106 | 37879 ft | 430 kts | 227° |
| 2026-05-06 22:19 | 38.37098 | -76.33618 | 37880 ft | 430 kts | 227° |
| 2026-05-06 22:19 | 38.32236 | -76.38299 | 37846 ft | 430 kts | 227° |
| 2026-05-06 22:20 | 38.27780 | -76.43174 | 37886 ft | 419 kts | 234° |
| 2026-05-06 22:20 | 38.23708 | -76.48512 | 37880 ft | 417 kts | 235° |
| 2026-05-06 22:21 | 38.19749 | -76.53848 | 37880 ft | 415 kts | 236° |
| 2026-05-06 22:21 | 38.15784 | -76.59202 | 37886 ft | 415 kts | 236° |
| 2026-05-06 22:22 | 38.11866 | -76.64464 | 37856 ft | 415 kts | 236° |
| 2026-05-06 22:22 | 38.07889 | -76.69775 | 37886 ft | 416 kts | 236° |
| 2026-05-06 22:23 | 38.03871 | -76.75130 | 37887 ft | 417 kts | 236° |
| 2026-05-06 22:23 | 37.99837 | -76.80419 | 37898 ft | 421 kts | 233° |
| 2026-05-06 22:24 | 37.95008 | -76.84909 | 37889 ft | 443 kts | 220° |
| 2026-05-06 22:24 | 37.89246 | -76.87996 | 37906 ft | 460 kts | 213° |
| 2026-05-06 22:25 | 37.83169 | -76.90761 | 37904 ft | 466 kts | 213° |
| 2026-05-06 22:25 | 37.77098 | -76.93498 | 37903 ft | 455 kts | 213° |
| 2026-05-06 22:26 | 37.74164 | -76.94802 | 37915 ft | 439 kts | 213° |
| 2026-05-06 22:26 | 37.71313 | -76.96045 | 37931 ft | 424 kts | 213° |
| 2026-05-06 22:26 | 37.65775 | -76.98552 | 37769 ft | 428 kts | 214° |
| 2026-05-06 22:27 | 37.62955 | -76.99879 | 37622 ft | 440 kts | 214° |
| 2026-05-06 22:27 | 37.60063 | -77.01234 | 37530 ft | 449 kts | 213° |
| 2026-05-06 22:27 | 37.57123 | -77.02585 | 37170 ft | 452 kts | 213° |
| 2026-05-06 22:27 | 37.54128 | -77.03935 | 36656 ft | 453 kts | 212° |
| 2026-05-06 22:28 | 37.51158 | -77.05261 | 36154 ft | 453 kts | 211° |
| 2026-05-06 22:28 | 37.48189 | -77.06585 | 35655 ft | 453 kts | 211° |
| 2026-05-06 22:28 | 37.45245 | -77.07906 | 35171 ft | 456 kts | 211° |
| 2026-05-06 22:28 | 37.42248 | -77.09246 | 34943 ft | 460 kts | 210° |
| 2026-05-06 22:29 | 37.36167 | -77.11962 | 34904 ft | 464 kts | 210° |
| 2026-05-06 22:29 | 37.30235 | -77.14981 | 34909 ft | 456 kts | 215° |
| 2026-05-06 22:30 | 37.24483 | -77.18325 | 34660 ft | 456 kts | 215° |
| 2026-05-06 22:30 | 37.21586 | -77.20008 | 34095 ft | 458 kts | 214° |
| 2026-05-06 22:30 | 37.18688 | -77.21687 | 33336 ft | 457 kts | 214° |
| 2026-05-06 22:31 | 37.15861 | -77.23383 | 32594 ft | 452 kts | 216° |
| 2026-05-06 22:31 | 37.13130 | -77.25320 | 31825 ft | 447 kts | 218° |
| 2026-05-06 22:31 | 37.10437 | -77.27310 | 31070 ft | 445 kts | 217° |
| 2026-05-06 22:31 | 37.07834 | -77.29324 | 30378 ft | 440 kts | 219° |
| 2026-05-06 22:32 | 37.05325 | -77.31524 | 29631 ft | 437 kts | 220° |
| 2026-05-06 22:32 | 37.02896 | -77.33696 | 28791 ft | 419 kts | 221° |
| 2026-05-06 22:32 | 37.00609 | -77.35746 | 28047 ft | 404 kts | 221° |
| 2026-05-06 22:32 | 36.98309 | -77.37818 | 27294 ft | 404 kts | 221° |
| 2026-05-06 22:33 | 36.96043 | -77.39866 | 26571 ft | 406 kts | 221° |
| 2026-05-06 22:33 | 36.93749 | -77.41935 | 25840 ft | 406 kts | 221° |
| 2026-05-06 22:33 | 36.91460 | -77.43996 | 25138 ft | 406 kts | 221° |
| 2026-05-06 22:33 | 36.89165 | -77.46061 | 24447 ft | 405 kts | 222° |
| 2026-05-06 22:34 | 36.86907 | -77.48084 | 23789 ft | 390 kts | 222° |
| 2026-05-06 22:34 | 36.84757 | -77.50007 | 23065 ft | 380 kts | 222° |
| 2026-05-06 22:34 | 36.82609 | -77.51937 | 22307 ft | 378 kts | 222° |
| 2026-05-06 22:34 | 36.80474 | -77.53857 | 21532 ft | 377 kts | 222° |
| 2026-05-06 22:35 | 36.78353 | -77.55761 | 20805 ft | 376 kts | 222° |
| 2026-05-06 22:35 | 36.76237 | -77.57657 | 20080 ft | 374 kts | 222° |
| 2026-05-06 22:35 | 36.74134 | -77.59540 | 19399 ft | 375 kts | 223° |
| 2026-05-06 22:35 | 36.71989 | -77.61461 | 18682 ft | 376 kts | 223° |
| 2026-05-06 22:36 | 36.69869 | -77.63357 | 17982 ft | 376 kts | 223° |
| 2026-05-06 22:36 | 36.67759 | -77.65243 | 17202 ft | 376 kts | 223° |
| 2026-05-06 22:36 | 36.65631 | -77.67143 | 16448 ft | 374 kts | 222° |
| 2026-05-06 22:36 | 36.63514 | -77.69032 | 15715 ft | 373 kts | 221° |
| 2026-05-06 22:37 | 36.61400 | -77.70916 | 14988 ft | 371 kts | 221° |
| 2026-05-06 22:37 | 36.59311 | -77.72777 | 14264 ft | 369 kts | 221° |
| 2026-05-06 22:37 | 36.57243 | -77.74617 | 13550 ft | 367 kts | 220° |
| 2026-05-06 22:37 | 36.55164 | -77.76466 | 12794 ft | 364 kts | 220° |
| 2026-05-06 22:38 | 36.53107 | -77.78295 | 12041 ft | 362 kts | 220° |
| 2026-05-06 22:38 | 36.51085 | -77.80093 | 11326 ft | 359 kts | 219° |
| 2026-05-06 22:38 | 36.49042 | -77.81907 | 10613 ft | 357 kts | 219° |
| 2026-05-06 22:38 | 36.47048 | -77.83676 | 9932 ft | 354 kts | 218° |
| 2026-05-06 22:39 | 36.45057 | -77.85440 | 9331 ft | 347 kts | 218° |
| 2026-05-06 22:39 | 36.43128 | -77.87144 | 9404 ft | 330 kts | 218° |
| 2026-05-06 22:39 | 36.41301 | -77.88759 | 9654 ft | 320 kts | 218° |
| 2026-05-06 22:39 | 36.39504 | -77.90350 | 9920 ft | 316 kts | 218° |
| 2026-05-06 22:40 | 36.37778 | -77.91874 | 9985 ft | 294 kts | 219° |
| 2026-05-06 22:40 | 36.36137 | -77.93320 | 10004 ft | 279 kts | 219° |
| 2026-05-06 22:40 | 36.34587 | -77.94692 | 9997 ft | 280 kts | 219° |
| 2026-05-06 22:40 | 36.33003 | -77.96097 | 9982 ft | 281 kts | 219° |
| 2026-05-06 22:41 | 36.29811 | -77.98917 | 9985 ft | 279 kts | 219° |
| 2026-05-06 22:41 | 36.28241 | -78.00303 | 9984 ft | 278 kts | 219° |
| 2026-05-06 22:41 | 36.26671 | -78.01687 | 9987 ft | 278 kts | 219° |
| 2026-05-06 22:42 | 36.25073 | -78.03095 | 9990 ft | 278 kts | 219° |
| 2026-05-06 22:42 | 36.23585 | -78.04553 | 9989 ft | 276 kts | 228° |
| 2026-05-06 22:42 | 36.22471 | -78.06470 | 9783 ft | 265 kts | 244° |
| 2026-05-06 22:42 | 36.21722 | -78.08449 | 9394 ft | 249 kts | 248° |
| 2026-05-06 22:43 | 36.21034 | -78.10372 | 8977 ft | 236 kts | 248° |
| 2026-05-06 22:43 | 36.20394 | -78.12181 | 8573 ft | 225 kts | 249° |
| 2026-05-06 22:43 | 36.19819 | -78.13931 | 8182 ft | 216 kts | 250° |
| 2026-05-06 22:43 | 36.19264 | -78.15636 | 7782 ft | 210 kts | 249° |
| 2026-05-06 22:44 | 36.18709 | -78.17326 | 7283 ft | 212 kts | 249° |
| 2026-05-06 22:44 | 36.18155 | -78.18998 | 6688 ft | 212 kts | 249° |
| 2026-05-06 22:44 | 36.17591 | -78.20684 | 6211 ft | 207 kts | 249° |
| 2026-05-06 22:44 | 36.17048 | -78.22306 | 6022 ft | 199 kts | 249° |
| 2026-05-06 22:45 | 36.16525 | -78.23864 | 5994 ft | 197 kts | 248° |
| 2026-05-06 22:45 | 36.16002 | -78.25428 | 6003 ft | 198 kts | 248° |
| 2026-05-06 22:45 | 36.15469 | -78.27010 | 6008 ft | 198 kts | 248° |
| 2026-05-06 22:45 | 36.15002 | -78.28586 | 6020 ft | 196 kts | 253° |
| 2026-05-06 22:46 | 36.14673 | -78.30248 | 6021 ft | 197 kts | 256° |
| 2026-05-06 22:46 | 36.14386 | -78.31891 | 6011 ft | 198 kts | 257° |
| 2026-05-06 22:46 | 36.14091 | -78.33570 | 6014 ft | 198 kts | 257° |
| 2026-05-06 22:46 | 36.13799 | -78.35222 | 6008 ft | 199 kts | 257° |
| 2026-05-06 22:47 | 36.13500 | -78.36902 | 6008 ft | 198 kts | 257° |
| 2026-05-06 22:47 | 36.13205 | -78.38561 | 6009 ft | 197 kts | 256° |
| 2026-05-06 22:47 | 36.12919 | -78.40163 | 6018 ft | 188 kts | 256° |
| 2026-05-06 22:47 | 36.12633 | -78.41728 | 6014 ft | 185 kts | 256° |
| 2026-05-06 22:48 | 36.12163 | -78.43196 | 6011 ft | 187 kts | 243° |
| 2026-05-06 22:48 | 36.11439 | -78.44540 | 6009 ft | 188 kts | 237° |
| 2026-05-06 22:48 | 36.10930 | -78.45411 | 6009 ft | 189 kts | 236° |
| 2026-05-06 22:48 | 36.10161 | -78.46723 | 6013 ft | 189 kts | 237° |
| 2026-05-06 22:49 | 36.09412 | -78.48078 | 6003 ft | 187 kts | 243° |
| 2026-05-06 22:49 | 36.08983 | -78.50111 | 6007 ft | 187 kts | 257° |
| 2026-05-06 22:49 | 36.08815 | -78.51142 | 6008 ft | 187 kts | 257° |
| 2026-05-06 22:49 | 36.08528 | -78.52713 | 6006 ft | 187 kts | 253° |
| 2026-05-06 22:50 | 36.07975 | -78.54170 | 6008 ft | 188 kts | 240° |
| 2026-05-06 22:50 | 36.07165 | -78.55436 | 5994 ft | 189 kts | 232° |
| 2026-05-06 22:50 | 36.06291 | -78.56599 | 5721 ft | 185 kts | 231° |
| 2026-05-06 22:50 | 36.05414 | -78.57752 | 5280 ft | 180 kts | 230° |
| 2026-05-06 22:51 | 36.04557 | -78.58878 | 4824 ft | 178 kts | 230° |
| 2026-05-06 22:51 | 36.03724 | -78.59974 | 4358 ft | 173 kts | 230° |
| 2026-05-06 22:51 | 36.02909 | -78.61018 | 4059 ft | 168 kts | 227° |
| 2026-05-06 22:51 | 36.02098 | -78.62015 | 3847 ft | 164 kts | 226° |
| 2026-05-06 22:52 | 36.01296 | -78.63015 | 3647 ft | 163 kts | 226° |
| 2026-05-06 22:52 | 36.00509 | -78.63998 | 3441 ft | 166 kts | 225° |
| 2026-05-06 22:52 | 35.99695 | -78.65009 | 3231 ft | 165 kts | 225° |
| 2026-05-06 22:52 | 35.98896 | -78.66002 | 3023 ft | 163 kts | 225° |
| 2026-05-06 22:53 | 35.98085 | -78.67013 | 2809 ft | 168 kts | 224° |
| 2026-05-06 22:53 | 35.97258 | -78.68036 | 2589 ft | 168 kts | 224° |
| 2026-05-06 22:53 | 35.96434 | -78.69060 | 2346 ft | 169 kts | 225° |
| 2026-05-06 22:53 | 35.95627 | -78.70058 | 2115 ft | 156 kts | 227° |
| 2026-05-06 22:54 | 35.94906 | -78.70957 | 1937 ft | 138 kts | 227° |
| 2026-05-06 22:54 | 35.94265 | -78.71753 | 1769 ft | 128 kts | 227° |
| 2026-05-06 22:54 | 35.93652 | -78.72513 | 1601 ft | 120 kts | 228° |
| 2026-05-06 22:54 | 35.93062 | -78.73246 | 1437 ft | 122 kts | 229° |
| 2026-05-06 22:55 | 35.92450 | -78.74007 | 1271 ft | 124 kts | 229° |
| 2026-05-06 22:55 | 35.91868 | -78.74750 | 1184 ft | 123 kts | 227° |
| 2026-05-06 22:55 | 35.91244 | -78.75502 | 985 ft | 124 kts | 226° |
| 2026-05-06 22:55 | 35.90642 | -78.76246 | 810 ft | 123 kts | 225° |
| 2026-05-06 22:56 | 35.90045 | -78.76990 | 752 ft | 119 kts | 227° |
| 2026-05-06 22:56 | 35.89454 | -78.77722 | 959 ft | 120 kts | 225° |